Time;durP1;ratioP1;P1;durP2;ratioP2;P2;SDS_P1;SDS_P2;PMS_P1;PMS_P2;Temp;Humidity;BMP_temperature;BMP_pressure;BME280_temperature;BME280_humidity;BME280_pressure;Samples;Min_cycle;Max_cycle;Signal;HPM_P1;HPM_P2
2021/10/20 00:02:21;;;;;;;3.05;2.50;;;20.70;99.90;;;;;;5073968;28;20012;-71
2021/10/20 00:04:49;;;;;;;2.35;2.17;;;21.10;99.90;;;;;;5072667;28;20029;-72
2021/10/20 00:07:16;;;;;;;2.70;2.50;;;21.80;99.90;;;;;;5073923;28;20025;-72
2021/10/20 00:09:43;;;;;;;5.10;2.53;;;22.20;99.90;;;;;;5073843;28;20031;-71
2021/10/20 00:12:11;;;;;;;3.88;2.80;;;22.20;99.90;;;;;;5073752;28;20105;-72
2021/10/20 00:14:38;;;;;;;3.63;2.50;;;22.30;99.90;;;;;;5073872;28;20114;-72
2021/10/20 00:17:06;;;;;;;5.00;2.70;;;22.50;99.90;;;;;;5072200;28;20036;-72
2021/10/20 00:19:33;;;;;;;5.43;2.55;;;22.80;99.90;;;;;;5073705;28;20101;-73
2021/10/20 00:22:01;;;;;;;4.43;2.50;;;22.50;99.90;;;;;;5073690;28;20025;-72
2021/10/20 00:24:28;;;;;;;4.15;2.40;;;22.50;99.90;;;;;;5073737;28;20044;-72
2021/10/20 00:26:55;;;;;;;2.60;2.40;;;22.40;99.90;;;;;;5073569;28;20013;-72
2021/10/20 00:29:23;;;;;;;5.13;2.42;;;22.80;99.90;;;;;;5072181;28;20039;-71
2021/10/20 00:31:50;;;;;;;3.45;2.50;;;22.80;99.90;;;;;;5072142;28;20455;-73
2021/10/20 00:34:17;;;;;;;2.92;2.20;;;22.60;99.90;;;;;;5073460;28;20029;-72
2021/10/20 00:36:45;;;;;;;3.10;2.40;;;22.60;99.90;;;;;;5073466;28;20031;-73
2021/10/20 00:39:13;;;;;;;4.80;2.38;;;23.00;99.90;;;;;;5072081;28;20477;-73
2021/10/20 00:41:40;;;;;;;2.83;2.10;;;22.80;99.90;;;;;;5073330;28;20381;-73
2021/10/20 00:44:08;;;;;;;2.60;2.40;;;22.50;99.90;;;;;;5073561;28;20093;-73
2021/10/20 00:46:35;;;;;;;2.55;2.30;;;22.40;99.90;;;;;;5071919;28;20027;-72
2021/10/20 00:49:03;;;;;;;2.90;1.80;;;22.50;99.90;;;;;;5073222;28;20035;-73
2021/10/20 00:51:30;;;;;;;4.65;2.25;;;22.80;99.90;;;;;;5071860;28;20036;-73
2021/10/20 00:53:58;;;;;;;3.95;2.10;;;22.80;99.90;;;;;;5073192;28;20020;-73
2021/10/20 00:56:26;;;;;;;3.88;2.10;;;23.20;99.90;;;;;;5072993;28;20023;-74
2021/10/20 00:58:54;;;;;;;4.07;2.30;;;23.20;99.90;;;;;;5071603;28;20025;-76
2021/10/20 01:01:22;;;;;;;5.32;2.70;;;23.10;99.90;;;;;;5071603;28;20029;-73
2021/10/20 01:03:49;;;;;;;2.70;2.50;;;23.00;99.90;;;;;;5073090;28;20027;-74
2021/10/20 01:06:17;;;;;;;3.38;2.80;;;23.20;99.90;;;;;;5072910;28;20013;-73
2021/10/20 01:08:45;;;;;;;3.55;2.50;;;23.40;99.90;;;;;;5072630;28;20029;-73
2021/10/20 01:11:14;;;;;;;4.20;2.17;;;23.30;99.90;;;;;;5072894;28;20553;-74
2021/10/20 01:13:42;;;;;;;5.53;2.40;;;23.40;99.90;;;;;;5071575;28;20459;-74
2021/10/20 01:16:09;;;;;;;3.08;2.35;;;23.40;99.90;;;;;;5072545;28;20385;-73
2021/10/20 01:18:37;;;;;;;4.07;2.67;;;23.30;99.90;;;;;;5071392;28;20025;-73
2021/10/20 01:21:04;;;;;;;3.80;2.60;;;23.40;99.90;;;;;;5072762;28;20032;-74
2021/10/20 01:23:32;;;;;;;2.40;2.20;;;23.60;99.90;;;;;;5071319;28;20027;-73
2021/10/20 01:25:59;;;;;;;2.38;2.15;;;23.60;99.90;;;;;;5072243;28;20024;-74
2021/10/20 01:28:26;;;;;;;3.00;2.28;;;23.30;99.90;;;;;;5072578;28;20024;-73
2021/10/20 01:30:54;;;;;;;3.15;2.03;;;23.70;99.90;;;;;;5071185;28;20047;-74
2021/10/20 01:33:21;;;;;;;2.13;1.92;;;23.80;99.90;;;;;;5072710;28;20020;-73
2021/10/20 01:35:50;;;;;;;3.95;2.08;;;23.70;99.90;;;;;;5071456;28;20048;-74
2021/10/20 01:38:17;;;;;;;2.58;1.92;;;23.50;99.90;;;;;;5071179;28;20397;-74
2021/10/20 01:40:45;;;;;;;3.20;2.47;;;23.70;99.60;;;;;;5072542;28;20020;-73
2021/10/20 01:43:12;;;;;;;3.03;2.67;;;23.00;99.90;;;;;;5072461;28;20099;-75
2021/10/20 01:45:39;;;;;;;2.78;2.58;;;23.10;99.90;;;;;;5072534;28;20044;-74
2021/10/20 01:48:07;;;;;;;3.72;2.50;;;23.20;99.90;;;;;;5072490;28;20429;-72
2021/10/20 01:50:34;;;;;;;3.67;2.45;;;23.40;99.90;;;;;;5071070;28;20028;-72
2021/10/20 01:53:02;;;;;;;3.28;2.97;;;23.30;99.90;;;;;;5072557;28;20498;-73
2021/10/20 01:55:30;;;;;;;2.65;2.42;;;23.30;99.90;;;;;;5071280;28;20020;-73
2021/10/20 01:57:57;;;;;;;3.60;2.47;;;23.40;98.40;;;;;;5072494;28;20652;-73
2021/10/20 02:00:25;;;;;;;3.10;2.30;;;23.70;98.10;;;;;;5071196;28;20020;-73
2021/10/20 02:02:52;;;;;;;2.85;2.22;;;23.50;99.30;;;;;;5072572;28;20016;-72
2021/10/20 02:05:19;;;;;;;4.25;2.50;;;23.90;97.20;;;;;;5070954;28;20020;-73
2021/10/20 02:07:47;;;;;;;2.83;2.40;;;24.00;98.00;;;;;;5071076;28;20418;-73
2021/10/20 02:10:15;;;;;;;3.10;2.38;;;24.00;97.80;;;;;;5070995;28;20021;-73
2021/10/20 02:12:43;;;;;;;3.45;2.40;;;24.30;97.80;;;;;;5070920;28;20481;-73
2021/10/20 02:15:11;;;;;;;2.38;2.17;;;24.40;96.80;;;;;;5072276;28;20035;-73
2021/10/20 02:17:39;;;;;;;2.28;2.13;;;24.80;95.90;;;;;;5072028;28;20111;-74
2021/10/20 02:20:09;;;;;;;2.20;2.00;;;24.40;95.20;;;;;;5070820;28;20116;-73
2021/10/20 02:22:36;;;;;;;2.22;2.05;;;24.60;95.90;;;;;;5070762;28;20058;-74
2021/10/20 02:25:05;;;;;;;3.05;2.08;;;24.50;94.40;;;;;;5072125;28;20044;-73
2021/10/20 02:27:33;;;;;;;2.40;2.20;;;24.50;94.80;;;;;;5072148;28;20017;-73
2021/10/20 02:30:00;;;;;;;2.47;1.90;;;24.70;93.70;;;;;;5072189;28;20108;-73
2021/10/20 02:32:28;;;;;;;2.20;2.00;;;24.70;92.70;;;;;;5070913;28;20115;-73
2021/10/20 02:34:55;;;;;;;2.40;2.20;;;24.80;93.30;;;;;;5071187;28;20125;-73
2021/10/20 02:37:22;;;;;;;1.90;1.80;;;25.00;92.90;;;;;;5071591;28;20027;-74
2021/10/20 02:39:50;;;;;;;1.98;1.80;;;25.20;92.60;;;;;;5074318;28;20169;-72
2021/10/20 02:42:17;;;;;;;4.65;2.03;;;25.00;92.80;;;;;;5075858;28;20377;-72
2021/10/20 02:44:44;;;;;;;1.70;1.60;;;24.70;93.00;;;;;;5074626;28;20027;-72
2021/10/20 02:47:12;;;;;;;3.35;1.73;;;24.80;93.70;;;;;;5075625;28;20060;-71
2021/10/20 02:49:39;;;;;;;2.22;1.90;;;24.80;94.60;;;;;;5075673;28;20028;-72
2021/10/20 02:52:06;;;;;;;3.50;2.13;;;24.50;94.30;;;;;;5074438;28;20453;-72
2021/10/20 02:54:34;;;;;;;2.08;1.92;;;24.50;94.90;;;;;;5075558;28;20119;-72
2021/10/20 02:57:02;;;;;;;2.42;2.15;;;24.80;94.90;;;;;;5075462;28;20035;-72
2021/10/20 02:59:29;;;;;;;2.80;2.13;;;24.30;95.20;;;;;;5075198;28;20020;-72
2021/10/20 03:01:56;;;;;;;3.40;2.10;;;24.60;95.80;;;;;;5075286;28;20435;-72
2021/10/20 03:04:24;;;;;;;3.42;2.40;;;24.80;95.40;;;;;;5073848;28;20462;-71
2021/10/20 03:06:51;;;;;;;3.10;1.90;;;25.00;95.20;;;;;;5073822;28;20020;-73
2021/10/20 03:09:18;;;;;;;2.47;2.10;;;25.10;94.60;;;;;;5073848;28;20031;-72
2021/10/20 03:11:46;;;;;;;3.33;2.47;;;25.20;95.10;;;;;;5073954;28;20456;-72
2021/10/20 03:14:14;;;;;;;2.60;2.35;;;24.90;95.00;;;;;;5074093;28;20073;-71
2021/10/20 03:16:42;;;;;;;1.92;1.80;;;25.00;95.70;;;;;;5073312;28;20055;-72
2021/10/20 03:19:10;;;;;;;3.53;2.20;;;25.20;95.40;;;;;;5073704;28;20056;-71
2021/10/20 03:21:37;;;;;;;2.80;2.10;;;25.00;95.50;;;;;;5075006;28;20545;-72
2021/10/20 03:24:05;;;;;;;3.83;2.35;;;25.00;96.10;;;;;;5073735;28;20031;-72
2021/10/20 03:26:32;;;;;;;2.10;2.00;;;24.80;95.70;;;;;;5074980;28;20021;-72
2021/10/20 03:28:59;;;;;;;2.40;2.20;;;24.90;96.20;;;;;;5074712;28;20502;-72
2021/10/20 03:31:27;;;;;;;2.67;2.13;;;24.80;95.90;;;;;;5074822;28;20032;-72
2021/10/20 03:33:54;;;;;;;2.58;2.20;;;24.70;96.30;;;;;;5074816;28;20020;-74
2021/10/20 03:36:22;;;;;;;3.25;2.70;;;24.50;96.60;;;;;;5074753;28;20165;-73
2021/10/20 03:38:49;;;;;;;2.42;2.22;;;24.70;96.10;;;;;;5074778;28;20036;-73
2021/10/20 03:41:16;;;;;;;4.13;2.30;;;25.10;96.20;;;;;;5073470;28;20050;-73
2021/10/20 03:43:44;;;;;;;2.95;2.25;;;24.90;96.30;;;;;;5073332;28;20067;-73
2021/10/20 03:46:11;;;;;;;3.45;2.13;;;24.80;95.30;;;;;;5074595;28;20040;-74
2021/10/20 03:48:39;;;;;;;5.10;2.65;;;24.60;95.00;;;;;;5074169;28;20028;-74
2021/10/20 03:51:07;;;;;;;4.57;2.50;;;24.40;95.10;;;;;;5074255;28;20115;-74
2021/10/20 03:53:34;;;;;;;2.75;2.50;;;24.50;94.50;;;;;;5074311;28;20497;-74
2021/10/20 03:56:02;;;;;;;3.35;2.50;;;24.60;94.70;;;;;;5074186;28;20025;-72
2021/10/20 03:58:29;;;;;;;2.95;2.42;;;24.70;95.10;;;;;;5072784;28;20025;-73
2021/10/20 04:00:58;;;;;;;4.40;2.60;;;24.80;94.20;;;;;;5073055;28;20115;-72
2021/10/20 04:03:25;;;;;;;2.97;2.50;;;25.20;94.40;;;;;;5074301;28;20028;-72
2021/10/20 04:05:52;;;;;;;4.30;2.50;;;24.90;93.70;;;;;;5074068;28;20073;-73
2021/10/20 04:08:19;;;;;;;4.45;2.40;;;25.10;94.50;;;;;;5074162;28;20029;-73
2021/10/20 04:10:47;;;;;;;3.03;2.30;;;25.10;94.00;;;;;;5072640;28;20024;-72
2021/10/20 04:13:14;;;;;;;2.63;2.40;;;24.90;94.00;;;;;;5074087;28;20028;-71
2021/10/20 04:15:42;;;;;;;3.42;2.20;;;24.70;94.00;;;;;;5073923;28;20394;-75
2021/10/20 04:18:09;;;;;;;2.95;2.35;;;24.60;94.00;;;;;;5072257;28;20044;-74
2021/10/20 04:20:36;;;;;;;3.42;2.40;;;24.50;94.80;;;;;;5072590;28;20031;-74
2021/10/20 04:23:04;;;;;;;3.20;2.50;;;24.20;94.20;;;;;;5073875;28;20382;-73
2021/10/20 04:25:31;;;;;;;2.80;2.47;;;24.40;94.50;;;;;;5073773;28;20568;-73
2021/10/20 04:27:58;;;;;;;4.10;2.60;;;24.80;93.70;;;;;;5072600;28;20031;-74
2021/10/20 04:30:26;;;;;;;3.53;2.28;;;24.80;93.80;;;;;;5072369;28;20043;-72
2021/10/20 04:32:53;;;;;;;2.95;2.40;;;24.70;93.60;;;;;;5073708;28;20013;-72
2021/10/20 04:35:23;;;;;;;6.15;2.53;;;24.70;93.90;;;;;;5073592;28;20024;-73
2021/10/20 04:37:50;;;;;;;3.22;2.30;;;24.80;93.30;;;;;;5073461;28;20017;-74
2021/10/20 04:40:18;;;;;;;2.63;2.50;;;25.00;93.80;;;;;;5071955;28;20037;-73
2021/10/20 04:42:46;;;;;;;2.63;2.50;;;25.40;93.30;;;;;;5073358;28;20509;-74
2021/10/20 04:45:14;;;;;;;3.08;2.78;;;25.40;92.60;;;;;;5055906;28;20040;-75
2021/10/20 04:47:41;;;;;;;3.80;3.45;;;24.90;93.80;;;;;;5072105;28;20089;-73
2021/10/20 04:50:10;;;;;;;3.92;3.30;;;25.20;94.00;;;;;;5073374;28;20028;-73
2021/10/20 04:52:38;;;;;;;3.55;3.00;;;24.80;93.80;;;;;;5072004;28;20527;-73
2021/10/20 04:55:07;;;;;;;3.10;2.90;;;24.90;94.20;;;;;;5072130;28;20085;-73
2021/10/20 04:57:35;;;;;;;3.03;2.83;;;25.20;93.50;;;;;;5071947;28;20033;-73
2021/10/20 05:00:04;;;;;;;3.25;2.80;;;24.00;94.40;;;;;;5071186;28;20036;-73
2021/10/20 05:02:35;;;;;;;3.33;3.03;;;24.00;95.10;;;;;;5073209;28;20039;-72
2021/10/20 05:05:07;;;;;;;3.15;2.67;;;23.60;95.60;;;;;;5073213;28;20077;-72
2021/10/20 05:07:45;;;;;;;4.15;2.40;;;23.90;95.70;;;;;;5073226;28;20031;-72
2021/10/20 05:10:12;;;;;;;2.50;2.30;;;23.40;96.10;;;;;;5072984;28;20120;-73
2021/10/20 05:12:39;;;;;;;4.95;2.72;;;22.80;96.80;;;;;;5072712;28;20021;-72
2021/10/20 05:15:07;;;;;;;6.15;2.85;;;22.50;97.70;;;;;;5072787;28;20055;-72
2021/10/20 05:17:34;;;;;;;4.47;2.50;;;22.50;98.00;;;;;;5072772;28;20040;-72
2021/10/20 05:20:02;;;;;;;4.85;2.55;;;22.80;97.60;;;;;;5072834;28;20385;-71
2021/10/20 05:22:33;;;;;;;3.40;2.78;;;22.80;97.50;;;;;;5072875;28;20045;-72
2021/10/20 05:25:00;;;;;;;4.05;2.40;;;22.90;96.90;;;;;;5072900;28;20044;-72
2021/10/20 05:27:28;;;;;;;3.47;2.53;;;23.20;96.50;;;;;;5071462;28;20035;-71
2021/10/20 05:29:57;;;;;;;3.03;2.70;;;23.50;95.70;;;;;;5072969;28;20025;-71
2021/10/20 05:32:26;;;;;;;2.85;2.58;;;23.60;95.70;;;;;;5071489;28;20032;-71
2021/10/20 05:34:54;;;;;;;5.57;2.58;;;23.50;96.30;;;;;;5072851;28;20099;-70
2021/10/20 05:37:21;;;;;;;2.47;2.35;;;23.40;96.10;;;;;;5072865;28;20533;-71
2021/10/20 05:39:49;;;;;;;3.85;2.67;;;23.20;96.20;;;;;;5071435;28;20090;-69
2021/10/20 05:42:17;;;;;;;6.97;2.38;;;23.50;95.70;;;;;;5072754;28;20025;-70
2021/10/20 05:44:44;;;;;;;4.13;2.50;;;23.60;95.80;;;;;;5072727;28;20385;-70
2021/10/20 05:47:12;;;;;;;3.78;2.78;;;23.30;96.30;;;;;;5072660;28;20020;-71
2021/10/20 05:49:39;;;;;;;2.40;2.20;;;23.50;95.90;;;;;;5072625;28;20021;-71
2021/10/20 05:52:08;;;;;;;2.33;2.10;;;23.70;95.60;;;;;;5072611;28;20032;-71
2021/10/20 05:54:35;;;;;;;2.63;2.20;;;23.70;95.30;;;;;;5071436;28;20028;-70
2021/10/20 05:57:03;;;;;;;2.30;2.10;;;23.90;94.60;;;;;;5072651;28;20039;-71
2021/10/20 05:59:30;;;;;;;2.47;2.28;;;24.00;95.30;;;;;;5071178;28;20059;-71
2021/10/20 06:01:57;;;;;;;2.20;2.10;;;24.00;95.00;;;;;;5071022;28;20035;-71
2021/10/20 06:04:25;;;;;;;2.50;2.30;;;24.10;95.20;;;;;;5070797;28;20033;-71
2021/10/20 06:06:52;;;;;;;2.60;2.40;;;24.20;94.90;;;;;;5072332;28;20119;-72
2021/10/20 06:09:19;;;;;;;2.50;2.30;;;23.60;95.20;;;;;;5070673;28;20207;-71
2021/10/20 06:11:47;;;;;;;2.47;2.35;;;23.30;95.90;;;;;;5072406;28;20086;-70
2021/10/20 06:14:14;;;;;;;4.10;2.50;;;23.30;96.30;;;;;;5075895;28;20025;-71
2021/10/20 06:16:41;;;;;;;3.03;2.30;;;23.70;96.00;;;;;;5074345;28;20109;-71
2021/10/20 06:19:09;;;;;;;5.13;2.50;;;23.80;96.20;;;;;;5075908;28;20028;-72
2021/10/20 06:21:37;;;;;;;2.42;2.22;;;23.50;96.50;;;;;;5076307;28;20366;-72
2021/10/20 06:24:04;;;;;;;2.53;2.30;;;23.30;96.80;;;;;;5076163;28;20017;-71
2021/10/20 06:26:33;;;;;;;3.47;2.42;;;23.60;96.90;;;;;;5075923;28;20470;-71
2021/10/20 06:29:00;;;;;;;2.90;2.60;;;23.30;96.80;;;;;;5075878;28;20025;-71
2021/10/20 06:31:28;;;;;;;2.58;2.38;;;23.00;97.60;;;;;;5075939;28;20032;-71
2021/10/20 06:33:55;;;;;;;3.38;2.05;;;22.50;98.00;;;;;;5074726;28;20393;-71
2021/10/20 06:36:32;;;;;;;2.53;2.28;;;22.30;98.50;;;;;;5075833;28;20024;-71
2021/10/20 06:39:01;;;;;;;2.88;1.92;;;22.90;98.10;;;;;;5075514;28;20028;-71
2021/10/20 06:41:29;;;;;;;2.45;1.80;;;22.80;97.80;;;;;;5075570;28;20020;-70
2021/10/20 06:43:56;;;;;;;2.60;2.15;;;23.10;97.60;;;;;;5075628;28;20108;-71
2021/10/20 06:46:24;;;;;;;2.80;2.10;;;23.00;97.60;;;;;;5074315;28;20102;-70
2021/10/20 06:48:51;;;;;;;2.42;2.22;;;22.70;97.60;;;;;;5075533;28;20473;-71
2021/10/20 06:51:18;;;;;;;2.30;2.10;;;23.40;97.60;;;;;;5075555;28;20533;-70
2021/10/20 06:53:46;;;;;;;2.28;2.00;;;23.40;96.80;;;;;;5075630;28;20169;-70
2021/10/20 06:56:13;;;;;;;3.45;2.03;;;23.10;97.50;;;;;;5075472;28;20444;-71
2021/10/20 06:58:41;;;;;;;2.53;2.33;;;22.70;98.00;;;;;;5075383;28;20021;-72
2021/10/20 07:01:09;;;;;;;3.47;2.33;;;22.50;98.50;;;;;;5074105;28;20024;-73
2021/10/20 07:03:36;;;;;;;2.42;2.22;;;21.90;99.30;;;;;;5075236;28;20031;-73
2021/10/20 07:06:03;;;;;;;2.78;2.30;;;21.50;99.80;;;;;;5075355;28;20021;-73
2021/10/20 07:08:31;;;;;;;4.00;2.50;;;21.20;99.90;;;;;;5073883;28;20032;-73
2021/10/20 07:10:58;;;;;;;2.97;2.75;;;20.90;99.90;;;;;;5075259;28;20028;-73
2021/10/20 07:13:26;;;;;;;4.35;2.88;;;20.70;99.90;;;;;;5075313;28;20483;-72
2021/10/20 07:15:53;;;;;;;3.65;3.08;;;20.50;99.90;;;;;;5075361;28;20024;-72
2021/10/20 07:18:22;;;;;;;5.28;3.17;;;20.40;99.90;;;;;;5073747;28;20048;-71
2021/10/20 07:20:49;;;;;;;4.43;2.80;;;20.30;99.90;;;;;;5074023;28;20025;-74
2021/10/20 07:23:17;;;;;;;4.22;2.67;;;20.20;99.90;;;;;;5073221;28;20073;-73
2021/10/20 07:25:44;;;;;;;2.58;2.38;;;20.10;99.90;;;;;;5073911;28;20021;-73
2021/10/20 07:28:11;;;;;;;3.88;2.67;;;19.90;99.90;;;;;;5075028;28;20103;-74
2021/10/20 07:30:39;;;;;;;5.05;2.80;;;19.80;99.90;;;;;;5074022;28;20032;-73
2021/10/20 07:33:07;;;;;;;2.95;2.70;;;19.80;99.90;;;;;;5075075;28;20435;-73
2021/10/20 07:35:34;;;;;;;3.05;2.85;;;19.70;99.90;;;;;;5075172;28;20499;-74
2021/10/20 07:38:02;;;;;;;4.03;3.00;;;19.70;99.90;;;;;;5074777;28;20385;-73
2021/10/20 07:40:29;;;;;;;4.10;3.60;;;19.60;99.90;;;;;;5073760;28;20112;-72
2021/10/20 07:42:56;;;;;;;6.65;3.90;;;19.50;99.90;;;;;;5074797;28;20029;-72
2021/10/20 07:45:25;;;;;;;6.88;3.60;;;19.50;99.90;;;;;;5073471;28;20028;-73
2021/10/20 07:47:52;;;;;;;4.15;3.70;;;19.30;99.90;;;;;;5073281;28;20055;-73
2021/10/20 07:50:21;;;;;;;3.80;3.30;;;19.20;99.90;;;;;;5074718;28;20017;-71
2021/10/20 07:52:49;;;;;;;4.32;3.75;;;19.00;99.90;;;;;;5074531;28;20017;-71
2021/10/20 07:55:24;;;;;;;3.75;3.40;;;19.00;99.90;;;;;;5073274;28;20027;-71
2021/10/20 07:57:53;;;;;;;4.20;3.17;;;18.90;99.90;;;;;;5074576;28;20024;-69
2021/10/20 08:00:21;;;;;;;3.17;2.90;;;18.90;99.90;;;;;;5074382;28;20020;-71
2021/10/20 08:02:48;;;;;;;4.50;3.20;;;18.80;99.90;;;;;;5073071;28;20025;-71
2021/10/20 08:05:16;;;;;;;3.75;3.25;;;18.80;99.90;;;;;;5074320;28;20020;-71
2021/10/20 08:07:45;;;;;;;11.23;3.97;;;18.80;99.90;;;;;;5074348;28;20017;-69
2021/10/20 08:10:18;;;;;;;7.03;3.50;;;18.80;99.90;;;;;;5074386;28;20024;-68
2021/10/20 08:12:46;;;;;;;4.50;4.13;;;18.80;99.90;;;;;;5074248;28;20044;-70
2021/10/20 08:15:14;;;;;;;13.00;4.30;;;;;;;;;;5072869;28;20024;-71
2021/10/20 08:17:42;;;;;;;3.72;3.20;;;;;;;;;;5074236;28;20130;-69
2021/10/20 08:20:10;;;;;;;3.70;3.40;;;;;;;;;;5072772;28;20405;-71
2021/10/20 08:22:41;;;;;;;4.65;3.70;;;;;;;;;;5072735;28;20499;-71
2021/10/20 08:25:09;;;;;;;5.97;4.13;;;;;;;;;;5073905;28;20020;-72
2021/10/20 08:27:36;;;;;;;4.80;3.38;;;;;;;;;;5073791;28;20021;-70
2021/10/20 08:30:05;;;;;;;6.78;3.70;;;;;;;;;;5073713;28;20024;-70
2021/10/20 08:32:32;;;;;;;6.72;4.07;;;;;;;;;;5073878;28;20389;-69
2021/10/20 08:34:59;;;;;;;7.63;3.70;;;;;;;;;;5073209;28;20029;-70
2021/10/20 08:37:26;;;;;;;3.95;2.78;;;;;;;;;;5073829;28;20047;-71
2021/10/20 08:39:53;;;;;;;8.32;3.83;;;;;;;;;;5073740;28;20439;-73
2021/10/20 08:42:21;;;;;;;4.47;3.13;;;;;;;;;;5073772;28;20114;-74
2021/10/20 08:44:49;;;;;;;3.60;3.28;;;;;;;;;;5072367;28;20053;-72
2021/10/20 08:47:16;;;;;;;4.20;3.40;;;;;;;;;;5073792;28;20362;-73
2021/10/20 08:49:44;;;;;;;3.72;3.42;;;;;;;;;;5072256;28;20024;-72
2021/10/20 08:52:11;;;;;;;4.75;3.20;;;;;;;;;;5073716;28;20028;-72
2021/10/20 08:54:38;;;;;;;4.10;3.72;;;;;;;;;;5072213;28;20501;-72
2021/10/20 08:57:06;;;;;;;4.95;4.03;;;;;;;;;;5073519;28;20023;-72
2021/10/20 08:59:35;;;;;;;4.05;3.65;;;;;;;;;;5055700;28;20551;-73
2021/10/20 09:02:05;;;;;;;6.28;4.18;;;;;;;;;;5072161;28;20016;-72
2021/10/20 09:04:37;;;;;;;4.65;4.20;;;;;;;;;;5073381;28;20028;-72
2021/10/20 09:07:13;;;;;;;4.82;4.30;;;;;;;;;;5073419;28;20024;-74
2021/10/20 09:09:40;;;;;;;5.18;4.70;;;;;;;;;;5073311;28;20147;-73
2021/10/20 09:12:08;;;;;;;8.00;5.10;;;;;;;;;;5073160;28;20021;-73
2021/10/20 09:14:35;;;;;;;5.32;4.82;;;;;;;;;;5071950;28;20374;-72
2021/10/20 09:17:06;;;;;;;5.22;4.80;;;;;;;;;;5073140;28;20068;-72
2021/10/20 09:19:34;;;;;;;5.75;5.20;;;;;;;;;;5072132;28;20489;-73
2021/10/20 09:22:12;;;;;;;5.13;4.82;;;;;;;;;;5073175;28;20051;-74
2021/10/20 09:24:41;;;;;;;4.70;4.30;;;;;;;;;;5073251;28;20020;-73
2021/10/20 09:27:29;;;;;;;4.72;4.43;;;;;;;;;;5073221;28;20016;-72
2021/10/20 09:30:12;;;;;;;5.07;4.57;;;;;;;;;;5073144;28;20381;-71
2021/10/20 09:32:40;;;;;;;5.57;4.70;;;;;;;;;;5071743;28;20063;-72
2021/10/20 09:35:07;;;;;;;4.47;4.10;;;;;;;;;;5073155;28;20115;-72
2021/10/20 09:37:34;;;;;;;5.25;4.90;;;;;;;;;;5073008;28;20537;-73
2021/10/20 09:40:09;;;;;;;5.13;4.78;;;;;;;;;;5071714;28;20431;-73
2021/10/20 09:42:50;;;;;;;5.40;4.90;;;;;;;;;;5073048;28;20541;-73
2021/10/20 09:45:17;;;;;;;5.15;4.68;;;;;;;;;;5073005;28;20027;-72
2021/10/20 09:47:45;;;;;;;5.97;5.40;;;;;;;;;;5076241;28;20381;-73
2021/10/20 09:50:13;;;;;;;6.25;5.30;;;;;;;;;;5077067;28;20070;-73
2021/10/20 09:52:44;;;;;;;5.78;5.38;;;;;;;;;;5077012;28;20489;-73
2021/10/20 09:55:26;;;;;;;6.07;5.60;;;;;;;;;;5075595;28;20036;-73
2021/10/20 09:58:02;;;;;;;6.20;5.60;;;;;;;;;;5076949;28;20477;-72
2021/10/20 10:00:30;;;;;;;5.25;4.85;;;;;;;;;;5076821;28;20431;-74
2021/10/20 10:02:58;;;;;;;6.25;5.55;;;;;;;;;;5076824;28;20043;-74
2021/10/20 10:05:27;;;;;;;5.30;4.90;;;;;;;;;;5076724;28;20389;-74
2021/10/20 10:07:55;;;;;;;6.00;5.50;;;;;;;;;;5075478;28;20073;-74
2021/10/20 10:10:22;;;;;;;5.03;4.72;;;;;;;;;;5076796;28;20021;-74
2021/10/20 10:12:53;;;;;;;5.32;4.93;;;;;;;;;;5076758;28;20087;-74
2021/10/20 10:15:20;;;;;;;5.53;5.00;;;;;;;;;;5076594;28;20032;-74
2021/10/20 10:17:48;;;;;;;5.00;4.70;;;;;;;;;;5075974;28;20451;-73
2021/10/20 10:20:17;;;;;;;5.53;5.10;;;;;;;;;;5075996;28;20036;-74
2021/10/20 10:22:49;;;;;;;5.55;5.10;;;;;;;;;;5075134;28;20370;-74
2021/10/20 10:25:17;;;;;;;6.30;5.80;;;;;;;;;;5076307;28;20012;-73
2021/10/20 10:28:02;;;;;;;5.80;5.40;;;;;;;;;;5075081;28;20070;-72
2021/10/20 10:30:32;;;;;;;5.63;5.22;;;;;;;;;;5075002;28;20020;-72
2021/10/20 10:32:59;;;;;;;6.22;5.63;;;;;;;;;;5075873;28;20397;-72
2021/10/20 10:35:32;;;;;;;6.00;5.60;;;;;;;;;;5076018;28;20104;-72
2021/10/20 10:38:03;;;;;;;6.50;5.72;;;;;;;;;;5074680;28;20029;-72
2021/10/20 10:40:32;;;;;;;6.18;5.70;;;;;;;;;;5076001;28;20012;-73
2021/10/20 10:43:06;;;;;;;6.38;5.93;;;;;;;;;;5075856;28;20477;-72
2021/10/20 10:45:34;;;;;;;6.78;5.97;;;;;;;;;;5074503;28;20197;-72
2021/10/20 10:48:03;;;;;;;6.82;6.32;;;;;;;;;;5074554;28;20023;-72
2021/10/20 10:50:49;;;;;;;6.82;6.40;;;;;;;;;;5075832;28;20539;-73
2021/10/20 10:53:34;;;;;;;6.60;6.10;;;;;;;;;;5074490;28;20065;-73
2021/10/20 10:56:15;;;;;;;7.45;6.95;;;;;;;;;;5075882;28;20020;-73
2021/10/20 10:58:55;;;;;;;6.63;6.25;;;;;;;;;;5074584;28;20107;-72
2021/10/20 11:01:40;;;;;;;7.28;6.78;;;;;;;;;;5074228;28;20066;-72
2021/10/20 11:04:23;;;;;;;7.43;6.80;;;;;;;;;;5074262;28;20028;-73
2021/10/20 11:06:51;;;;;;;7.35;6.95;;;;;;;;;;5074295;28;20116;-74
2021/10/20 11:09:22;;;;;;;7.88;7.43;;;;;;;;;;5075523;28;20021;-72
2021/10/20 11:11:49;;;;;;;7.70;7.10;;;;;;;;;;5074163;28;20028;-73
2021/10/20 11:14:18;;;;;;;7.15;6.65;;;;;;;;;;5074202;28;20392;-73
2021/10/20 11:16:57;;;;;;;7.18;6.70;;;;;;;;;;5075456;28;20045;-72
2021/10/20 11:19:24;;;;;;;6.95;6.25;;;;;;;;;;5074036;28;20036;-72
2021/10/20 11:21:52;;;;;;;7.18;6.72;;;;;;;;;;5075380;28;20021;-73
2021/10/20 11:24:19;;;;;;;8.05;7.38;;;;;;;;;;5074124;28;20021;-72
2021/10/20 11:26:47;;;;;;;8.43;7.72;;;;;;;;;;5075307;28;20027;-73
2021/10/20 11:29:15;;;;;;;8.73;8.02;;;;;;;;;;5075155;28;20529;-73
2021/10/20 11:31:55;;;;;;;8.52;7.90;;;;;;;;;;5075141;28;20044;-73
2021/10/20 11:34:26;;;;;;;9.55;8.75;;;;;;;;;;5075076;28;20098;-73
2021/10/20 11:36:52;;;;;;;;;;;;;;;;;;5075541;28;20103;-72
2021/10/20 11:39:20;;;;;;;9.07;8.20;;;;;;;;;;5074961;28;19912;-73
2021/10/20 11:41:50;;;;;;;8.73;8.13;;;;;;;;;;5075023;28;20124;-73
2021/10/20 11:44:21;;;;;;;8.80;8.13;;;;;;;;;;5073538;28;20567;-73
2021/10/20 11:46:48;;;;;;;9.10;8.50;;;;;;;;;;5073421;28;20026;-73
2021/10/20 11:49:15;;;;;;;10.18;9.30;;;;;;;;;;5074864;28;20020;-72
2021/10/20 11:51:43;;;;;;;9.50;8.90;;;;;;;;;;5073515;28;20024;-72
2021/10/20 11:54:10;;;;;;;9.48;8.85;;;;;;;;;;5073292;28;20033;-72
2021/10/20 11:56:37;;;;;;;9.13;8.70;;;;;;;;;;5073247;28;20489;-73
2021/10/20 11:59:09;;;;;;;9.35;8.77;;;;;;;;;;5074390;28;20430;-72
2021/10/20 12:01:36;;;;;;;10.38;9.88;;;;;;;;;;5074595;28;20016;-73
2021/10/20 12:04:06;;;;;;;10.40;9.77;;;;;;;;;;5073081;28;20048;-72
2021/10/20 12:06:33;;;;;;;10.77;10.00;;;;;;;;;;5074793;28;20036;-72
2021/10/20 12:09:02;;;;;;;10.10;9.50;;;;;;;;;;5072898;28;20043;-74
2021/10/20 12:11:29;;;;;;;10.15;9.50;;;;;;;;;;5074437;28;20021;-73
2021/10/20 12:14:04;;;;;;;10.02;9.43;;;;;;;;;;5072878;28;20366;-73
2021/10/20 12:16:32;;;;;;;10.30;9.40;;;;;;;;;;5074041;28;20044;-73
2021/10/20 12:18:59;;;;;;;10.15;9.55;;;;;;;;;;5074100;28;20029;-72
2021/10/20 12:21:30;;;;;;;10.10;9.38;;;;;;;;;;5074072;28;20047;-73
2021/10/20 12:23:58;;;;;;;10.30;9.70;;;;;;;;;;5074159;28;20361;-72
2021/10/20 12:26:27;;;;;;;10.45;9.77;;;;;;;;;;5072668;28;20077;-73
2021/10/20 12:28:55;;;;;;;9.63;9.00;;;;;;;;;;5072552;28;20504;-73
2021/10/20 12:31:25;;;;;;;9.35;8.68;;;;;;;;;;5073818;28;20044;-73
2021/10/20 12:33:53;;;;;;;10.30;9.30;;;;;;;;;;5073831;28;20021;-74
2021/10/20 12:36:21;;;;;;;9.63;9.02;;;;;;;;;;5072461;28;20488;-74
2021/10/20 12:38:50;;;;;;;10.13;9.52;;;;;;;;;;5073831;28;20063;-72
2021/10/20 12:41:21;;;;;;;9.45;8.85;;;;;;;;;;5072444;28;20020;-73
2021/10/20 12:43:49;;;;;;;9.70;8.95;;;;;;;;;;5074198;28;20052;-73
2021/10/20 12:46:17;;;;;;;9.20;8.50;;;;;;;;;;5072414;28;20020;-72
2021/10/20 12:48:46;;;;;;;8.93;8.20;;;;;;;;;;5072435;28;20024;-72
2021/10/20 12:51:15;;;;;;;9.10;8.40;;;;;;;;;;5073572;28;20444;-74
2021/10/20 12:53:43;;;;;;;8.88;8.27;;;;;;;;;;5072182;28;20020;-73
2021/10/20 12:56:11;;;;;;;9.82;9.10;;;;;;;;;;5073813;28;20027;-73
2021/10/20 12:58:38;;;;;;;9.80;9.20;;;;;;;;;;5073456;28;20086;-73
2021/10/20 13:01:05;;;;;;;10.48;9.75;;;;;;;;;;5073464;28;20408;-74
2021/10/20 13:03:33;;;;;;;10.52;9.90;;;;;;;;;;5073469;28;20528;-73
2021/10/20 13:06:02;;;;;;;10.93;10.05;;;;;;;;;;5073501;28;20016;-72
2021/10/20 13:08:30;;;;;;;10.40;9.70;;;;;;;;;;5073450;28;20021;-72
2021/10/20 13:10:57;;;;;;;11.13;10.43;;;;;;;;;;5073594;28;20103;-73
2021/10/20 13:13:26;;;;;;;10.98;10.10;;;;;;;;;;5073227;28;20020;-74
2021/10/20 13:15:55;;;;;;;11.10;10.10;;;;;;;;;;5071968;28;20021;-73
2021/10/20 13:18:23;;;;;;;10.27;9.50;;;;;;;;;;5072937;28;20552;-73
2021/10/20 13:20:51;;;;;;;10.02;9.50;;;;;;;;;;5072304;28;20388;-73
2021/10/20 13:23:18;;;;;;;10.75;10.18;;;;;;;;;;5073333;28;20020;-74
2021/10/20 13:25:46;;;;;;;10.32;9.60;;;;;;;;;;5071819;28;20087;-73
2021/10/20 13:28:13;;;;;;;10.20;9.60;;;;;;;;;;5072964;28;20025;-73
2021/10/20 13:30:41;;;;;;;10.25;9.57;;;;;;;;;;5071672;28;20020;-73
2021/10/20 13:33:09;;;;;;;10.65;9.88;;;;;;;;;;5071631;28;20021;-73
2021/10/20 13:35:38;;;;;;;10.73;9.80;;;;;;;;;;5055150;28;20036;-73